Nuku'alofa, Tonga
Current Conditions -  °F | °C
As of 1:35 PM on Saturday 25 Oct 2014 (Local Time) from NFTF Reporting Station
Drizzle Drizzle  
Wind Chill: 73°   Ceiling: 700
Heat Index: 73°   Visibility: 6mi
Dew Point: 70°   Wind: 8mph
Humidity: 88%   Direction: 170°S
Pressure: 29.91"   Gusts: NA
Location:  21.14°S, 175.22°W
Report Text: NFTF 250035Z 17007KT 9999 -DZ BKN007 BKN015 OVCO4O 23/21 Q1013
Loading
Personal Weather Stations






























Interactive Weather Map
Tropical Storm Tracking
New forecast layout! Learn more

10-Day Weather Forecast

Advertisements
Track Severe Weather on mobile